NCAR-RAP Real-Time Weather Data

Output produced by METARs form (19 April 2015  09:21 UTC)
found at http://weather.rap.ucar.edu/surface/
 
Conditions at: KALB observed 19 April 2015  08:51 UTC
Temperature: 5.0°C (41°F)
Dewpoint: -1.1°C (30°F) [RH = 65%]
Pressure (altimeter): 30.24 inches Hg (1024.1 mb)
[Sea-level pressure: 1023.9 mb]
Winds: from the N (10 degrees) at 6 MPH (5 knots; 2.6 m/s)
Visibility: 10 or more miles (16+ km)
Ceiling: at least 12,000 feet AGL
Clouds: few clouds at 3000 feet AGL
few clouds at 25000 feet AGL
Present Weather: no significant weather observed at this time
KALB 190851Z 01005KT 10SM FEW030 FEW250 05/M01 A3024 RMK AO2 SLP239 T00501011 51024

Conditions at: KALB observed 19 April 2015  07:51 UTC
Temperature: 6.1°C (43°F)
Dewpoint: 0.0°C (32°F) [RH = 65%]
Pressure (altimeter): 30.22 inches Hg (1023.5 mb)
[Sea-level pressure: 1023.3 mb]
Winds: from the N (10 degrees) at 7 MPH (6 knots; 3.1 m/s)
Visibility: 10 or more miles (16+ km)
Ceiling: at least 12,000 feet AGL
Clouds: sky clear below 12,000 feet AGL
Present Weather: no significant weather observed at this time
KALB 190751Z 01006KT 10SM CLR 06/00 A3022 RMK AO2 SLP233 T00610000

Conditions at: KALB observed 19 April 2015  06:51 UTC
Temperature: 6.7°C (44°F)
Dewpoint: 0.6°C (33°F) [RH = 65%]
Pressure (altimeter): 30.19 inches Hg (1022.4 mb)
[Sea-level pressure: 1022.4 mb]
Winds: from the NNE (20 degrees) at 7 MPH (6 knots; 3.1 m/s)
Visibility: 10 or more miles (16+ km)
Ceiling: at least 12,000 feet AGL
Clouds: sky clear below 12,000 feet AGL
Present Weather: no significant weather observed at this time
KALB 190651Z 02006KT 10SM CLR 07/01 A3019 RMK AO2 SLP224 T00670006

Conditions at: KALB observed 19 April 2015  05:51 UTC
Temperature: 7.8°C (46°F)
Dewpoint: 0.6°C (33°F) [RH = 60%]
Pressure (altimeter): 30.16 inches Hg (1021.4 mb)
[Sea-level pressure: 1021.5 mb]
Winds: from the NNE (20 degrees) at 10 MPH (9 knots; 4.7 m/s)
Visibility: 10 or more miles (16+ km)
Ceiling: at least 12,000 feet AGL
Clouds: sky clear below 12,000 feet AGL
Present Weather: no significant weather observed at this time
KALB 190551Z 02009KT 10SM CLR 08/01 A3016 RMK AO2 SLP215 T00780006 10178 20078 51021

Conditions at: KALB observed 19 April 2015  04:51 UTC
Temperature: 8.3°C (47°F)
Dewpoint: -1.1°C (30°F) [RH = 51%]
Pressure (altimeter): 30.15 inches Hg (1021.1 mb)
[Sea-level pressure: 1021.1 mb]
Winds: from the NNE (30 degrees) at 6 MPH (5 knots; 2.6 m/s)
Visibility: 10 or more miles (16+ km)
Ceiling: at least 12,000 feet AGL
Clouds: sky clear below 12,000 feet AGL
Present Weather: no significant weather observed at this time
KALB 190451Z 03005KT 10SM CLR 08/M01 A3015 RMK AO2 SLP211 T00831011 402500039

Conditions at: KALB observed 19 April 2015  03:51 UTC
Temperature: 9.4°C (49°F)
Dewpoint: -1.1°C (30°F) [RH = 48%]
Pressure (altimeter): 30.12 inches Hg (1020.1 mb)
[Sea-level pressure: 1020.1 mb]
Winds: from the ENE (70 degrees) at 6 MPH (5 knots; 2.6 m/s)
Visibility: 10 or more miles (16+ km)
Ceiling: at least 12,000 feet AGL
Clouds: sky clear below 12,000 feet AGL
Present Weather: no significant weather observed at this time
KALB 190351Z 07005KT 10SM CLR 09/M01 A3012 RMK AO2 SLP201 T00941011

Conditions at: KALB observed 19 April 2015  02:51 UTC
Temperature: 12.8°C (55°F)
Dewpoint: -6.7°C (20°F) [RH = 25%]
Pressure (altimeter): 30.10 inches Hg (1019.4 mb)
[Sea-level pressure: 1019.3 mb]
Winds: from the N (360 degrees) at 10 MPH (9 knots; 4.7 m/s)
Visibility: 10 or more miles (16+ km)
Ceiling: at least 12,000 feet AGL
Clouds: sky clear below 12,000 feet AGL
Present Weather: no significant weather observed at this time
KALB 190251Z 36009KT 10SM CLR 13/M07 A3010 RMK AO2 SLP193 T01281067 51035

Conditions at: KALB observed 19 April 2015  01:51 UTC
Temperature: 14.4°C (58°F)
Dewpoint: -9.4°C (15°F) [RH = 18%]
Pressure (altimeter): 30.07 inches Hg (1018.4 mb)
[Sea-level pressure: 1018.4 mb]
Winds: from the N (360 degrees) at 13 MPH (11 knots; 5.7 m/s)
gusting to 22 MPH (19 knots; 9.9 m/s)
Visibility: 10 or more miles (16+ km)
Ceiling: at least 12,000 feet AGL
Clouds: sky clear below 12,000 feet AGL
Present Weather: no significant weather observed at this time
KALB 190151Z 36011G19KT 10SM CLR 14/M09 A3007 RMK AO2 SLP184 T01441094

Conditions at: KALB observed 19 April 2015  00:51 UTC
Temperature: 16.1°C (61°F)
Dewpoint: -6.1°C (21°F) [RH = 21%]
Pressure (altimeter): 30.05 inches Hg (1017.7 mb)
[Sea-level pressure: 1017.7 mb]
Winds: from the NNW (330 degrees) at 18 MPH (16 knots; 8.3 m/s)
gusting to 24 MPH (21 knots; 10.9 m/s)
Visibility: 10 or more miles (16+ km)
Ceiling: at least 12,000 feet AGL
Clouds: sky clear below 12,000 feet AGL
Present Weather: no significant weather observed at this time
KALB 190051Z 33016G21KT 10SM CLR 16/M06 A3005 RMK AO2 SLP177 T01611061

Conditions at: KALB observed 18 April 2015  23:51 UTC
Temperature: 17.8°C (64°F)
Dewpoint: -5.0°C (23°F) [RH = 21%]
Pressure (altimeter): 30.00 inches Hg (1016.0 mb)
[Sea-level pressure: 1015.9 mb]
Winds: from the NW (310 degrees) at 15 MPH (13 knots; 6.8 m/s)
gusting to 21 MPH (18 knots; 9.4 m/s)
Visibility: 10 or more miles (16+ km)
Ceiling: at least 12,000 feet AGL
Clouds: sky clear below 12,000 feet AGL
Present Weather: no significant weather observed at this time
KALB 182351Z 31013G18KT 10SM CLR 18/M05 A3000 RMK AO2 SLP159 T01781050 10250 20172 52042

Conditions at: KALB observed 18 April 2015  22:51 UTC
Temperature: 19.4°C (67°F)
Dewpoint: -2.2°C (28°F) [RH = 23%]
Pressure (altimeter): 29.95 inches Hg (1014.3 mb)
[Sea-level pressure: 1014.3 mb]
Winds: from the WNW (300 degrees) at 20 MPH (17 knots; 8.8 m/s)
gusting to 29 MPH (25 knots; 13.0 m/s)
Visibility: 10 or more miles (16+ km)
Ceiling: at least 12,000 feet AGL
Clouds: few clouds at 8500 feet AGL
Present Weather: no significant weather observed at this time
KALB 182251Z 30017G25KT 10SM FEW085 19/M02 A2995 RMK AO2 PK WND 31026/2225 SLP143 T01941022

Conditions at: KALB observed 18 April 2015  21:51 UTC
Temperature: 21.1°C (70°F)
Dewpoint: -2.8°C (27°F) [RH = 20%]
Pressure (altimeter): 29.92 inches Hg (1013.3 mb)
[Sea-level pressure: 1013.1 mb]
Winds: from the NW (310 degrees) at 22 MPH (19 knots; 9.9 m/s)
gusting to 37 MPH (32 knots; 16.6 m/s)
Visibility: 10 or more miles (16+ km)
Ceiling: at least 12,000 feet AGL
Clouds: few clouds at 8500 feet AGL
few clouds at 10000 feet AGL
Present Weather: no significant weather observed at this time
KALB 182151Z 31019G32KT 10SM FEW085 FEW100 21/M03 A2992 RMK AO2 PK WND 28036/2057 SLP131 T02111028